Flugplatz Stuttgart

Bericht für EDDS

vom 23.09. um 19:20 UTC

Wind 20 kt aus 310° in Böen 35 kt

Sichtweite 10 km oder mehr

schwacher Regenschauer

gering bewölkt in 1000 ft

aufgebrochene Bewölkung in 3400 ft

aufgebrochene Bewölkung in 6400 ft

Temperatur 12.0°C

Taupunkt 11.0°C

Luftfeuchtigkeit 94%

Luftdruck 1014 hPa

EDDS 231920Z 31020G35KT 9999 -SHRA FEW010 BKN034CB BKN064 12/11 Q1014 RERA BECMG 32015KT

Prognose für EDDS

vom 23.09. um 17:00 UTC

Zwischen 18:00 UTC und 22:00 UTC

Wind 15 kt aus 280° in Böen 30 kt

Sichtweite 10 km oder mehr

aufgebrochene Bewölkung in 2000 ft


Zwischen 18:00 UTC und 00:00 UTC zeitweise

Sichtweite 4000 m

Regenschauer

aufgebrochene Bewölkung in 1000 ft


Zwischen 22:00 und 01:00 UTC übergehend zu

Wind 8 kt aus 300°

Sichtweite 10 km oder mehr

aufgebrochene Bewölkung in 2000 ft

TAF EDDS 231700Z 2318/2418 28015G30KT 9999 BKN020 TEMPO 2318/2324 4000 SHRA BKN010CB BECMG 2322/2401 30008KT
Impressum